sensor_id;sensor_type;location;lat;lon;timestamp;pressure;altitude;pressure_sealevel;temperature;humidity
59106;BME280;44891;50.204;8.132;2024-02-28T00:03:13;98419.59;;;1.66;94.62
59106;BME280;44891;50.204;8.132;2024-02-28T00:07:15;98420.56;;;1.27;96.34
59106;BME280;44891;50.204;8.132;2024-02-28T00:11:18;98417.34;;;1.62;96.21
59106;BME280;44891;50.204;8.132;2024-02-28T00:15:20;98423.13;;;1.64;94.96
59106;BME280;44891;50.204;8.132;2024-02-28T00:19:23;98430.78;;;1.81;95.75
59106;BME280;44891;50.204;8.132;2024-02-28T00:23:25;98429.34;;;1.78;95.46
59106;BME280;44891;50.204;8.132;2024-02-28T00:27:27;98420.50;;;1.73;93.99
59106;BME280;44891;50.204;8.132;2024-02-28T00:31:29;98432.44;;;1.36;95.25
59106;BME280;44891;50.204;8.132;2024-02-28T00:35:32;98434.59;;;1.32;95.22
59106;BME280;44891;50.204;8.132;2024-02-28T00:39:37;98438.59;;;1.35;95.82
59106;BME280;44891;50.204;8.132;2024-02-28T00:43:39;98453.59;;;1.62;95.08
59106;BME280;44891;50.204;8.132;2024-02-28T00:47:42;98447.13;;;1.96;94.84
59106;BME280;44891;50.204;8.132;2024-02-28T00:51:46;98467.22;;;2.09;94.44
59106;BME280;44891;50.204;8.132;2024-02-28T00:55:48;98467.16;;;2.17;94.28
59106;BME280;44891;50.204;8.132;2024-02-28T00:59:52;98469.63;;;2.10;95.19
59106;BME280;44891;50.204;8.132;2024-02-28T01:03:55;98469.56;;;2.48;93.57
59106;BME280;44891;50.204;8.132;2024-02-28T01:07:58;98465.28;;;2.55;96.17
59106;BME280;44891;50.204;8.132;2024-02-28T01:12:00;98468.91;;;2.76;98.55
59106;BME280;44891;50.204;8.132;2024-02-28T01:16:02;98469.91;;;2.75;99.46
59106;BME280;44891;50.204;8.132;2024-02-28T01:20:04;98476.56;;;2.84;99.55
59106;BME280;44891;50.204;8.132;2024-02-28T01:24:07;98473.19;;;2.83;100.00
59106;BME280;44891;50.204;8.132;2024-02-28T01:28:09;98480.22;;;3.04;100.00
59106;BME280;44891;50.204;8.132;2024-02-28T01:32:11;98479.03;;;3.07;100.00
59106;BME280;44891;50.204;8.132;2024-02-28T01:36:13;98481.84;;;3.26;100.00
59106;BME280;44891;50.204;8.132;2024-02-28T01:40:16;98481.09;;;3.11;100.00
59106;BME280;44891;50.204;8.132;2024-02-28T01:44:18;98479.50;;;3.32;100.00
59106;BME280;44891;50.204;8.132;2024-02-28T01:48:20;98478.13;;;3.36;100.00
59106;BME280;44891;50.204;8.132;2024-02-28T01:52:22;98487.91;;;3.34;100.00
59106;BME280;44891;50.204;8.132;2024-02-28T01:56:25;98479.19;;;3.41;100.00
59106;BME280;44891;50.204;8.132;2024-02-28T02:00:27;98474.84;;;3.27;100.00
59106;BME280;44891;50.204;8.132;2024-02-28T02:04:29;98484.25;;;3.49;100.00
59106;BME280;44891;50.204;8.132;2024-02-28T02:08:31;98478.31;;;3.34;100.00
59106;BME280;44891;50.204;8.132;2024-02-28T02:12:35;98475.31;;;3.52;100.00
59106;BME280;44891;50.204;8.132;2024-02-28T02:16:37;98469.59;;;3.20;100.00
59106;BME280;44891;50.204;8.132;2024-02-28T02:20:40;98471.00;;;3.23;100.00
59106;BME280;44891;50.204;8.132;2024-02-28T02:24:47;98472.53;;;3.32;100.00
59106;BME280;44891;50.204;8.132;2024-02-28T02:28:49;98479.50;;;3.32;100.00
59106;BME280;44891;50.204;8.132;2024-02-28T02:32:50;98481.97;;;3.40;100.00
59106;BME280;44891;50.204;8.132;2024-02-28T02:36:52;98479.19;;;3.41;100.00
59106;BME280;44891;50.204;8.132;2024-02-28T02:40:56;98479.88;;;3.50;100.00
59106;BME280;44891;50.204;8.132;2024-02-28T02:44:58;98480.47;;;3.73;100.00
59106;BME280;44891;50.204;8.132;2024-02-28T02:49:00;98480.22;;;3.68;100.00
59106;BME280;44891;50.204;8.132;2024-02-28T02:53:02;98486.03;;;3.49;100.00
59106;BME280;44891;50.204;8.132;2024-02-28T02:57:05;98495.44;;;3.28;100.00
59106;BME280;44891;50.204;8.132;2024-02-28T03:01:07;98488.91;;;3.33;100.00
59106;BME280;44891;50.204;8.132;2024-02-28T03:05:10;98484.91;;;3.15;100.00
59106;BME280;44891;50.204;8.132;2024-02-28T03:09:11;98494.41;;;3.44;100.00
59106;BME280;44891;50.204;8.132;2024-02-28T03:13:15;98495.50;;;3.35;100.00
59106;BME280;44891;50.204;8.132;2024-02-28T03:17:16;98493.53;;;3.37;100.00
59106;BME280;44891;50.204;8.132;2024-02-28T03:21:18;98501.06;;;3.32;100.00
59106;BME280;44891;50.204;8.132;2024-02-28T03:25:21;98505.69;;;3.37;100.00
59106;BME280;44891;50.204;8.132;2024-02-28T03:29:24;98507.56;;;3.43;100.00
59106;BME280;44891;50.204;8.132;2024-02-28T03:33:26;98514.44;;;3.50;100.00
59106;BME280;44891;50.204;8.132;2024-02-28T03:37:28;98515.28;;;3.36;100.00
59106;BME280;44891;50.204;8.132;2024-02-28T03:41:30;98514.38;;;3.44;100.00
59106;BME280;44891;50.204;8.132;2024-02-28T03:45:37;98513.38;;;3.09;100.00
59106;BME280;44891;50.204;8.132;2024-02-28T03:49:39;98517.25;;;3.34;100.00
59106;BME280;44891;50.204;8.132;2024-02-28T03:53:41;98525.22;;;3.33;100.00
59106;BME280;44891;50.204;8.132;2024-02-28T03:57:46;98528.41;;;3.13;100.00
59106;BME280;44891;50.204;8.132;2024-02-28T04:01:49;98532.25;;;3.17;100.00
59106;BME280;44891;50.204;8.132;2024-02-28T04:05:51;98535.22;;;3.36;100.00
59106;BME280;44891;50.204;8.132;2024-02-28T04:09:53;98542.56;;;3.47;100.00
59106;BME280;44891;50.204;8.132;2024-02-28T04:13:55;98539.38;;;3.30;100.00
59106;BME280;44891;50.204;8.132;2024-02-28T04:17:58;98556.66;;;3.38;100.00
59106;BME280;44891;50.204;8.132;2024-02-28T04:22:00;98557.53;;;3.45;100.00
59106;BME280;44891;50.204;8.132;2024-02-28T04:26:01;98556.84;;;3.58;100.00
59106;BME280;44891;50.204;8.132;2024-02-28T04:30:04;98561.59;;;3.54;100.00
59106;BME280;44891;50.204;8.132;2024-02-28T04:34:07;98566.16;;;3.31;100.00
59106;BME280;44891;50.204;8.132;2024-02-28T04:38:09;98566.66;;;3.41;100.00
59106;BME280;44891;50.204;8.132;2024-02-28T04:42:12;98574.47;;;3.26;100.00
59106;BME280;44891;50.204;8.132;2024-02-28T04:46:14;98580.63;;;3.40;100.00
59106;BME280;44891;50.204;8.132;2024-02-28T04:50:17;98582.75;;;3.51;100.00
59106;BME280;44891;50.204;8.132;2024-02-28T04:54:19;98587.41;;;3.41;100.00
59106;BME280;44891;50.204;8.132;2024-02-28T04:58:21;98594.34;;;3.19;100.00
59106;BME280;44891;50.204;8.132;2024-02-28T05:02:22;98585.81;;;3.40;100.00
59106;BME280;44891;50.204;8.132;2024-02-28T05:06:27;98586.63;;;3.40;100.00
59106;BME280;44891;50.204;8.132;2024-02-28T05:10:29;98584.13;;;3.32;100.00
59106;BME280;44891;50.204;8.132;2024-02-28T05:14:32;98594.13;;;3.50;100.00
59106;BME280;44891;50.204;8.132;2024-02-28T05:18:34;98596.47;;;3.45;100.00
59106;BME280;44891;50.204;8.132;2024-02-28T05:22:37;98602.47;;;3.67;100.00
59106;BME280;44891;50.204;8.132;2024-02-28T05:26:41;98606.25;;;3.64;100.00
59106;BME280;44891;50.204;8.132;2024-02-28T05:30:42;98609.38;;;3.38;100.00
59106;BME280;44891;50.204;8.132;2024-02-28T05:34:45;98613.94;;;3.21;100.00
59106;BME280;44891;50.204;8.132;2024-02-28T05:38:48;98612.97;;;3.37;100.00
59106;BME280;44891;50.204;8.132;2024-02-28T05:42:50;98619.91;;;3.51;100.00
59106;BME280;44891;50.204;8.132;2024-02-28T05:46:52;98616.06;;;3.47;100.00
59106;BME280;44891;50.204;8.132;2024-02-28T05:50:54;98606.38;;;3.41;100.00
59106;BME280;44891;50.204;8.132;2024-02-28T05:54:57;98620.41;;;3.25;100.00
59106;BME280;44891;50.204;8.132;2024-02-28T05:58:59;98626.84;;;3.15;100.00
59106;BME280;44891;50.204;8.132;2024-02-28T06:03:01;98623.72;;;3.19;100.00
59106;BME280;44891;50.204;8.132;2024-02-28T06:07:03;98633.81;;;3.44;100.00
59106;BME280;44891;50.204;8.132;2024-02-28T06:11:06;98635.13;;;3.40;100.00
59106;BME280;44891;50.204;8.132;2024-02-28T06:15:08;98631.16;;;3.59;100.00
59106;BME280;44891;50.204;8.132;2024-02-28T06:19:11;98645.41;;;3.48;100.00
59106;BME280;44891;50.204;8.132;2024-02-28T06:23:13;98650.06;;;3.52;100.00
59106;BME280;44891;50.204;8.132;2024-02-28T06:27:16;98660.47;;;3.38;100.00
59106;BME280;44891;50.204;8.132;2024-02-28T06:31:18;98667.63;;;3.36;100.00
59106;BME280;44891;50.204;8.132;2024-02-28T06:35:20;98672.00;;;3.35;100.00
59106;BME280;44891;50.204;8.132;2024-02-28T06:39:22;98671.56;;;3.46;100.00
59106;BME280;44891;50.204;8.132;2024-02-28T06:43:25;98672.63;;;3.52;100.00
59106;BME280;44891;50.204;8.132;2024-02-28T06:47:27;98690.34;;;3.63;100.00
59106;BME280;44891;50.204;8.132;2024-02-28T06:51:29;98691.06;;;3.72;100.00
59106;BME280;44891;50.204;8.132;2024-02-28T06:55:30;98702.44;;;3.56;100.00
59106;BME280;44891;50.204;8.132;2024-02-28T06:59:34;98699.25;;;3.39;100.00
59106;BME280;44891;50.204;8.132;2024-02-28T07:03:35;98689.03;;;3.38;100.00
59106;BME280;44891;50.204;8.132;2024-02-28T07:07:37;98693.50;;;3.29;100.00
59106;BME280;44891;50.204;8.132;2024-02-28T07:11:39;98708.19;;;3.22;100.00
59106;BME280;44891;50.204;8.132;2024-02-28T07:15:42;98697.09;;;3.58;100.00
59106;BME280;44891;50.204;8.132;2024-02-28T07:19:44;98703.69;;;3.60;100.00
59106;BME280;44891;50.204;8.132;2024-02-28T07:23:46;98712.03;;;3.70;100.00
59106;BME280;44891;50.204;8.132;2024-02-28T07:27:48;98715.34;;;3.49;100.00
59106;BME280;44891;50.204;8.132;2024-02-28T07:31:51;98714.81;;;3.54;100.00
59106;BME280;44891;50.204;8.132;2024-02-28T07:35:53;98720.97;;;3.68;100.00
59106;BME280;44891;50.204;8.132;2024-02-28T07:39:55;98728.56;;;3.69;100.00
59106;BME280;44891;50.204;8.132;2024-02-28T07:43:56;98722.25;;;3.27;100.00
59106;BME280;44891;50.204;8.132;2024-02-28T07:48:00;98718.47;;;3.15;100.00
59106;BME280;44891;50.204;8.132;2024-02-28T07:52:02;98725.47;;;3.59;100.00
59106;BME280;44891;50.204;8.132;2024-02-28T07:56:04;98722.41;;;3.41;100.00
59106;BME280;44891;50.204;8.132;2024-02-28T08:00:06;98716.25;;;3.57;100.00
59106;BME280;44891;50.204;8.132;2024-02-28T08:04:16;98717.59;;;3.89;100.00
59106;BME280;44891;50.204;8.132;2024-02-28T08:08:18;98711.25;;;3.91;100.00
59106;BME280;44891;50.204;8.132;2024-02-28T08:12:20;98713.94;;;3.98;100.00
59106;BME280;44891;50.204;8.132;2024-02-28T08:16:22;98725.09;;;4.13;99.24
59106;BME280;44891;50.204;8.132;2024-02-28T08:20:25;98718.53;;;4.17;98.60
59106;BME280;44891;50.204;8.132;2024-02-28T08:24:27;98735.00;;;3.88;99.95
59106;BME280;44891;50.204;8.132;2024-02-28T08:28:28;98740.31;;;3.65;99.87
59106;BME280;44891;50.204;8.132;2024-02-28T08:32:30;98737.50;;;3.96;99.33
59106;BME280;44891;50.204;8.132;2024-02-28T08:36:33;98744.94;;;4.21;97.57
59106;BME280;44891;50.204;8.132;2024-02-28T08:40:35;98760.47;;;4.14;97.82
59106;BME280;44891;50.204;8.132;2024-02-28T08:44:37;98762.34;;;4.20;97.26
59106;BME280;44891;50.204;8.132;2024-02-28T08:48:39;98757.94;;;3.85;97.44
59106;BME280;44891;50.204;8.132;2024-02-28T08:52:42;98764.25;;;4.12;97.75
59106;BME280;44891;50.204;8.132;2024-02-28T08:56:44;98773.28;;;4.16;97.34
59106;BME280;44891;50.204;8.132;2024-02-28T09:00:46;98783.84;;;3.78;100.00
59106;BME280;44891;50.204;8.132;2024-02-28T09:04:48;98782.75;;;3.87;100.00
59106;BME280;44891;50.204;8.132;2024-02-28T09:08:53;98779.47;;;4.15;97.17
59106;BME280;44891;50.204;8.132;2024-02-28T09:12:55;98774.69;;;3.97;100.00
59106;BME280;44891;50.204;8.132;2024-02-28T09:16:57;98778.69;;;4.14;98.33
59106;BME280;44891;50.204;8.132;2024-02-28T09:21:03;98781.94;;;4.38;96.26
59106;BME280;44891;50.204;8.132;2024-02-28T09:25:07;98786.09;;;4.53;95.33
59106;BME280;44891;50.204;8.132;2024-02-28T09:29:09;98786.34;;;4.22;95.07
59106;BME280;44891;50.204;8.132;2024-02-28T09:33:11;98782.94;;;4.36;94.69
59106;BME280;44891;50.204;8.132;2024-02-28T09:37:14;98780.50;;;3.99;96.29
59106;BME280;44891;50.204;8.132;2024-02-28T09:41:18;98778.69;;;4.14;95.40
59106;BME280;44891;50.204;8.132;2024-02-28T09:45:21;98784.13;;;4.19;95.25
59106;BME280;44891;50.204;8.132;2024-02-28T09:49:23;98789.09;;;4.50;93.90
59106;BME280;44891;50.204;8.132;2024-02-28T09:53:27;98794.19;;;5.08;91.87
59106;BME280;44891;50.204;8.132;2024-02-28T09:57:30;98804.59;;;5.08;90.47
59106;BME280;44891;50.204;8.132;2024-02-28T10:01:33;98804.72;;;5.49;88.55
59106;BME280;44891;50.204;8.132;2024-02-28T10:05:37;98814.50;;;5.47;89.62
59106;BME280;44891;50.204;8.132;2024-02-28T10:09:39;98810.34;;;5.53;88.72
59106;BME280;44891;50.204;8.132;2024-02-28T10:13:42;98811.63;;;4.64;89.01
59106;BME280;44891;50.204;8.132;2024-02-28T10:17:44;98807.94;;;5.02;90.49
59106;BME280;44891;50.204;8.132;2024-02-28T10:21:46;98808.44;;;5.40;88.65
59106;BME280;44891;50.204;8.132;2024-02-28T10:25:48;98809.31;;;5.19;88.75
59106;BME280;44891;50.204;8.132;2024-02-28T10:29:51;98805.53;;;5.50;89.20
59106;BME280;44891;50.204;8.132;2024-02-28T10:33:53;98807.69;;;6.09;87.01
59106;BME280;44891;50.204;8.132;2024-02-28T10:37:55;98824.34;;;5.80;85.95
59106;BME280;44891;50.204;8.132;2024-02-28T10:41:57;98833.84;;;5.59;86.97
59106;BME280;44891;50.204;8.132;2024-02-28T10:46:02;98831.38;;;6.20;86.42
59106;BME280;44891;50.204;8.132;2024-02-28T10:50:05;98840.56;;;6.10;85.44
59106;BME280;44891;50.204;8.132;2024-02-28T10:54:08;98839.56;;;6.11;85.09
59106;BME280;44891;50.204;8.132;2024-02-28T10:58:11;98817.72;;;7.32;82.93
59106;BME280;44891;50.204;8.132;2024-02-28T11:02:14;98814.47;;;8.35;77.02
59106;BME280;44891;50.204;8.132;2024-02-28T11:06:17;98819.84;;;8.53;72.11
59106;BME280;44891;50.204;8.132;2024-02-28T11:10:22;98819.09;;;8.39;75.02
59106;BME280;44891;50.204;8.132;2024-02-28T11:14:24;98815.97;;;9.62;69.65
59106;BME280;44891;50.204;8.132;2024-02-28T11:18:28;98817.91;;;14.14;60.37
59106;BME280;44891;50.204;8.132;2024-02-28T11:22:30;98810.16;;;13.30;56.01
59106;BME280;44891;50.204;8.132;2024-02-28T11:26:34;98814.47;;;9.73;67.99
59106;BME280;44891;50.204;8.132;2024-02-28T11:30:36;98808.47;;;10.21;64.53
59106;BME280;44891;50.204;8.132;2024-02-28T11:34:40;98811.03;;;10.09;65.95
59106;BME280;44891;50.204;8.132;2024-02-28T11:38:41;98803.09;;;11.76;63.39
59106;BME280;44891;50.204;8.132;2024-02-28T11:42:43;98796.47;;;20.54;44.64
59106;BME280;44891;50.204;8.132;2024-02-28T11:46:45;98794.47;;;20.22;39.76
59106;BME280;44891;50.204;8.132;2024-02-28T11:50:49;98795.19;;;22.68;37.08
59106;BME280;44891;50.204;8.132;2024-02-28T11:54:52;98785.91;;;23.42;35.83
59106;BME280;44891;50.204;8.132;2024-02-28T11:58:54;98786.88;;;24.86;34.36
59106;BME280;44891;50.204;8.132;2024-02-28T12:03:03;98779.56;;;21.84;37.13
59106;BME280;44891;50.204;8.132;2024-02-28T12:07:07;98775.75;;;26.70;32.43
59106;BME280;44891;50.204;8.132;2024-02-28T12:11:09;98777.34;;;25.99;32.88
59106;BME280;44891;50.204;8.132;2024-02-28T12:15:11;98760.91;;;25.63;32.86
59106;BME280;44891;50.204;8.132;2024-02-28T12:19:13;98758.41;;;26.59;32.68
59106;BME280;44891;50.204;8.132;2024-02-28T12:23:17;98747.81;;;25.53;32.71
59106;BME280;44891;50.204;8.132;2024-02-28T12:27:19;98744.13;;;26.79;31.74
59106;BME280;44891;50.204;8.132;2024-02-28T12:31:21;98736.44;;;28.24;29.86
59106;BME280;44891;50.204;8.132;2024-02-28T12:35:23;98741.28;;;26.21;32.30
59106;BME280;44891;50.204;8.132;2024-02-28T12:39:26;98754.16;;;26.07;32.17
59106;BME280;44891;50.204;8.132;2024-02-28T12:43:29;98740.28;;;26.68;31.71
59106;BME280;44891;50.204;8.132;2024-02-28T12:47:31;98746.31;;;25.72;32.96
59106;BME280;44891;50.204;8.132;2024-02-28T12:51:36;98714.66;;;23.98;33.96
59106;BME280;44891;50.204;8.132;2024-02-28T12:55:40;98704.88;;;26.15;32.37
59106;BME280;44891;50.204;8.132;2024-02-28T12:59:42;98697.13;;;26.55;32.07
59106;BME280;44891;50.204;8.132;2024-02-28T13:03:44;98685.88;;;26.53;31.67
59106;BME280;44891;50.204;8.132;2024-02-28T13:07:46;98686.25;;;23.40;34.42
59106;BME280;44891;50.204;8.132;2024-02-28T13:11:49;98671.44;;;23.02;35.40
59106;BME280;44891;50.204;8.132;2024-02-28T13:15:51;98664.16;;;24.52;33.33
59106;BME280;44891;50.204;8.132;2024-02-28T13:19:53;98662.72;;;23.94;33.36
59106;BME280;44891;50.204;8.132;2024-02-28T13:23:55;98662.00;;;23.45;34.47
59106;BME280;44891;50.204;8.132;2024-02-28T13:27:58;98653.16;;;23.44;33.52
59106;BME280;44891;50.204;8.132;2024-02-28T13:32:00;98659.66;;;24.73;32.29
59106;BME280;44891;50.204;8.132;2024-02-28T13:36:02;98650.28;;;22.39;35.22
59106;BME280;44891;50.204;8.132;2024-02-28T13:40:04;98650.94;;;19.87;37.82
59106;BME280;44891;50.204;8.132;2024-02-28T13:44:08;98654.59;;;18.76;40.31
59106;BME280;44891;50.204;8.132;2024-02-28T13:48:15;98649.84;;;18.68;40.63
59106;BME280;44891;50.204;8.132;2024-02-28T13:52:18;98645.13;;;17.22;42.94
59106;BME280;44891;50.204;8.132;2024-02-28T13:56:20;98643.44;;;15.58;45.56
59106;BME280;44891;50.204;8.132;2024-02-28T14:00:23;98646.41;;;14.66;47.88
59106;BME280;44891;50.204;8.132;2024-02-28T14:04:25;98648.09;;;17.05;44.34
59106;BME280;44891;50.204;8.132;2024-02-28T14:08:27;98638.78;;;15.80;46.47
59106;BME280;44891;50.204;8.132;2024-02-28T14:12:28;98635.63;;;17.00;43.74
59106;BME280;44891;50.204;8.132;2024-02-28T14:16:32;98638.19;;;18.30;41.74
59106;BME280;44891;50.204;8.132;2024-02-28T14:20:33;98630.56;;;15.71;46.10
59106;BME280;44891;50.204;8.132;2024-02-28T14:24:35;98625.84;;;15.94;47.63
59106;BME280;44891;50.204;8.132;2024-02-28T14:28:39;98630.84;;;15.17;45.61
59106;BME280;44891;50.204;8.132;2024-02-28T14:32:42;98625.53;;;15.12;47.98
59106;BME280;44891;50.204;8.132;2024-02-28T14:36:44;98633.13;;;13.48;50.89
59106;BME280;44891;50.204;8.132;2024-02-28T14:40:49;98634.13;;;13.03;52.32
59106;BME280;44891;50.204;8.132;2024-02-28T14:44:51;98640.81;;;12.56;53.38
59106;BME280;44891;50.204;8.132;2024-02-28T14:48:55;98632.63;;;13.29;51.34
59106;BME280;44891;50.204;8.132;2024-02-28T14:52:57;98633.06;;;13.21;51.73
59106;BME280;44891;50.204;8.132;2024-02-28T14:56:59;98635.75;;;13.97;51.22
59106;BME280;44891;50.204;8.132;2024-02-28T15:01:00;98637.22;;;13.00;52.83
59106;BME280;44891;50.204;8.132;2024-02-28T15:05:04;98632.00;;;12.33;54.27
59106;BME280;44891;50.204;8.132;2024-02-28T15:09:07;98630.75;;;12.52;54.94
59106;BME280;44891;50.204;8.132;2024-02-28T15:13:09;98629.47;;;12.21;55.07
59106;BME280;44891;50.204;8.132;2024-02-28T15:17:11;98631.03;;;12.06;56.52
59106;BME280;44891;50.204;8.132;2024-02-28T15:21:14;98636.31;;;11.65;56.90
59106;BME280;44891;50.204;8.132;2024-02-28T15:25:16;98632.34;;;11.23;59.25
59106;BME280;44891;50.204;8.132;2024-02-28T15:29:18;98628.47;;;11.02;59.21
59106;BME280;44891;50.204;8.132;2024-02-28T15:33:20;98637.63;;;10.99;59.87
59106;BME280;44891;50.204;8.132;2024-02-28T15:37:23;98641.16;;;11.05;60.46
59106;BME280;44891;50.204;8.132;2024-02-28T15:41:26;98637.03;;;10.74;61.23
59106;BME280;44891;50.204;8.132;2024-02-28T15:45:28;98632.22;;;10.24;62.54
59106;BME280;44891;50.204;8.132;2024-02-28T15:49:29;98636.47;;;10.48;62.56
59106;BME280;44891;50.204;8.132;2024-02-28T15:53:33;98642.31;;;10.50;63.26
59106;BME280;44891;50.204;8.132;2024-02-28T15:57:35;98636.19;;;10.26;64.00
59106;BME280;44891;50.204;8.132;2024-02-28T16:01:37;98633.72;;;10.01;63.76
59106;BME280;44891;50.204;8.132;2024-02-28T16:05:39;98643.25;;;9.96;64.31
59106;BME280;44891;50.204;8.132;2024-02-28T16:09:43;98639.00;;;9.83;64.77
59106;BME280;44891;50.204;8.132;2024-02-28T16:13:45;98645.28;;;9.82;65.74
59106;BME280;44891;50.204;8.132;2024-02-28T16:17:48;98646.41;;;9.56;65.11
59106;BME280;44891;50.204;8.132;2024-02-28T16:21:50;98644.97;;;9.42;65.39
59106;BME280;44891;50.204;8.132;2024-02-28T16:25:54;98641.03;;;9.51;64.84
59106;BME280;44891;50.204;8.132;2024-02-28T16:29:58;98644.75;;;9.07;65.78
59106;BME280;44891;50.204;8.132;2024-02-28T16:34:00;98648.41;;;9.06;64.80
59106;BME280;44891;50.204;8.132;2024-02-28T16:38:02;98643.56;;;9.03;64.93
59106;BME280;44891;50.204;8.132;2024-02-28T16:42:05;98640.69;;;8.92;65.43
59106;BME280;44891;50.204;8.132;2024-02-28T16:46:07;98647.31;;;8.70;65.55
59106;BME280;44891;50.204;8.132;2024-02-28T16:50:09;98646.78;;;8.61;65.30
59106;BME280;44891;50.204;8.132;2024-02-28T16:54:11;98647.97;;;8.65;64.96
59106;BME280;44891;50.204;8.132;2024-02-28T16:58:14;98660.41;;;8.45;65.16
59106;BME280;44891;50.204;8.132;2024-02-28T17:02:16;98656.91;;;8.26;66.20
59106;BME280;44891;50.204;8.132;2024-02-28T17:06:18;98644.00;;;8.00;67.59
59106;BME280;44891;50.204;8.132;2024-02-28T17:10:20;98644.44;;;7.90;67.85
59106;BME280;44891;50.204;8.132;2024-02-28T17:14:24;98646.72;;;7.80;68.40
59106;BME280;44891;50.204;8.132;2024-02-28T17:18:26;98642.97;;;7.62;69.11
59106;BME280;44891;50.204;8.132;2024-02-28T17:22:27;98638.94;;;7.67;69.23
59106;BME280;44891;50.204;8.132;2024-02-28T17:26:31;98643.78;;;7.63;69.99
59106;BME280;44891;50.204;8.132;2024-02-28T17:30:34;98638.47;;;7.76;69.04
59106;BME280;44891;50.204;8.132;2024-02-28T17:34:36;98641.94;;;7.70;69.83
59106;BME280;44891;50.204;8.132;2024-02-28T17:38:38;98642.94;;;7.69;70.30
59106;BME280;44891;50.204;8.132;2024-02-28T17:42:39;98649.19;;;7.68;69.58
59106;BME280;44891;50.204;8.132;2024-02-28T17:46:43;98651.81;;;7.68;70.99
59106;BME280;44891;50.204;8.132;2024-02-28T17:50:45;98654.25;;;7.56;71.24
59106;BME280;44891;50.204;8.132;2024-02-28T17:54:48;98659.38;;;7.31;72.88
59106;BME280;44891;50.204;8.132;2024-02-28T17:58:50;98657.53;;;7.39;72.36
59106;BME280;44891;50.204;8.132;2024-02-28T18:02:53;98656.16;;;7.36;72.65
59106;BME280;44891;50.204;8.132;2024-02-28T18:06:55;98661.03;;;6.99;74.64
59106;BME280;44891;50.204;8.132;2024-02-28T18:10:57;98659.28;;;6.67;76.83
59106;BME280;44891;50.204;8.132;2024-02-28T18:14:59;98647.66;;;6.36;78.60
59106;BME280;44891;50.204;8.132;2024-02-28T18:19:02;98650.06;;;6.44;78.18
59106;BME280;44891;50.204;8.132;2024-02-28T18:23:04;98646.84;;;6.49;77.36
59106;BME280;44891;50.204;8.132;2024-02-28T18:27:06;98651.66;;;6.32;78.64
59106;BME280;44891;50.204;8.132;2024-02-28T18:31:11;98643.41;;;6.09;79.53
59106;BME280;44891;50.204;8.132;2024-02-28T18:35:14;98637.22;;;6.23;78.44
59106;BME280;44891;50.204;8.132;2024-02-28T18:39:16;98634.38;;;6.05;78.80
59106;BME280;44891;50.204;8.132;2024-02-28T18:43:18;98634.94;;;5.93;80.20
59106;BME280;44891;50.204;8.132;2024-02-28T18:47:19;98639.78;;;6.03;80.06
59106;BME280;44891;50.204;8.132;2024-02-28T18:51:25;98633.06;;;5.81;80.54
59106;BME280;44891;50.204;8.132;2024-02-28T18:55:27;98641.06;;;5.66;82.26
59106;BME280;44891;50.204;8.132;2024-02-28T18:59:30;98644.47;;;5.66;81.94
59106;BME280;44891;50.204;8.132;2024-02-28T19:03:32;98639.22;;;5.60;82.41
59106;BME280;44891;50.204;8.132;2024-02-28T19:07:35;98644.53;;;5.32;82.46
59106;BME280;44891;50.204;8.132;2024-02-28T19:11:37;98634.91;;;5.32;83.06
59106;BME280;44891;50.204;8.132;2024-02-28T19:15:39;98629.38;;;5.42;82.22
59106;BME280;44891;50.204;8.132;2024-02-28T19:19:41;98626.16;;;5.46;82.82
59106;BME280;44891;50.204;8.132;2024-02-28T19:23:44;98628.38;;;5.43;82.56
59106;BME280;44891;50.204;8.132;2024-02-28T19:27:45;98627.59;;;5.49;82.00
59106;BME280;44891;50.204;8.132;2024-02-28T19:31:47;98620.03;;;5.19;83.11
59106;BME280;44891;50.204;8.132;2024-02-28T19:35:49;98611.47;;;5.32;82.56
59106;BME280;44891;50.204;8.132;2024-02-28T19:39:53;98615.50;;;5.28;82.03
59106;BME280;44891;50.204;8.132;2024-02-28T19:43:57;98618.13;;;5.35;82.40
59106;BME280;44891;50.204;8.132;2024-02-28T19:47:59;98624.06;;;5.22;82.46
59106;BME280;44891;50.204;8.132;2024-02-28T19:52:01;98632.53;;;5.37;81.66
59106;BME280;44891;50.204;8.132;2024-02-28T19:56:04;98640.53;;;5.29;82.94
59106;BME280;44891;50.204;8.132;2024-02-28T20:00:06;98638.66;;;5.16;82.30
59106;BME280;44891;50.204;8.132;2024-02-28T20:04:08;98637.03;;;5.09;81.52
59106;BME280;44891;50.204;8.132;2024-02-28T20:08:10;98640.72;;;5.34;80.00
59106;BME280;44891;50.204;8.132;2024-02-28T20:12:13;98644.91;;;5.22;81.17
59106;BME280;44891;50.204;8.132;2024-02-28T20:16:15;98640.00;;;5.06;81.80
59106;BME280;44891;50.204;8.132;2024-02-28T20:20:18;98636.47;;;5.20;80.77
59106;BME280;44891;50.204;8.132;2024-02-28T20:24:19;98637.41;;;5.06;81.51
59106;BME280;44891;50.204;8.132;2024-02-28T20:28:23;98643.38;;;4.72;83.05
59106;BME280;44891;50.204;8.132;2024-02-28T20:32:24;98635.88;;;4.83;83.40
59106;BME280;44891;50.204;8.132;2024-02-28T20:36:27;98639.13;;;4.64;81.92
59106;BME280;44891;50.204;8.132;2024-02-28T20:40:29;98634.75;;;4.64;81.76
59106;BME280;44891;50.204;8.132;2024-02-28T20:44:32;98631.69;;;4.61;82.87
59106;BME280;44891;50.204;8.132;2024-02-28T20:48:34;98637.56;;;4.20;84.32
59106;BME280;44891;50.204;8.132;2024-02-28T20:52:35;98626.28;;;4.34;83.66
59106;BME280;44891;50.204;8.132;2024-02-28T20:56:37;98622.59;;;4.22;83.06
59106;BME280;44891;50.204;8.132;2024-02-28T21:00:43;98625.00;;;4.02;83.95
59106;BME280;44891;50.204;8.132;2024-02-28T21:04:44;98605.56;;;4.20;82.55
59106;BME280;44891;50.204;8.132;2024-02-28T21:08:47;98599.59;;;3.98;83.83
59106;BME280;44891;50.204;8.132;2024-02-28T21:12:50;98604.47;;;3.86;85.70
59106;BME280;44891;50.204;8.132;2024-02-28T21:16:54;98603.69;;;3.86;85.33
59106;BME280;44891;50.204;8.132;2024-02-28T21:20:56;98595.63;;;4.02;84.68
59106;BME280;44891;50.204;8.132;2024-02-28T21:24:59;98591.53;;;3.93;85.19
59106;BME280;44891;50.204;8.132;2024-02-28T21:29:01;98583.16;;;3.91;86.04
59106;BME280;44891;50.204;8.132;2024-02-28T21:33:04;98576.09;;;3.85;85.90